createdAt,value
2023-01-13T00:39:44.107Z,8.87
2023-01-13T01:09:43.288Z,8.79
2023-01-13T02:09:43.465Z,9.01
2023-01-13T02:39:32.549Z,8.98
2023-01-13T03:09:42.281Z,8.99
2023-01-13T03:39:40.582Z,9
2023-01-13T04:09:31.475Z,9.18
2023-01-13T04:39:31.143Z,9
2023-01-13T05:39:30.895Z,9.07
2023-01-13T06:09:36.835Z,8.24
2023-01-13T06:39:32.060Z,8.15
2023-01-13T07:09:39.866Z,7.99
2023-01-13T07:39:31.446Z,7.97
2023-01-13T08:09:39.547Z,7.92
2023-01-13T08:39:32.522Z,8.48
2023-01-13T09:09:34.300Z,8.58
2023-01-13T09:39:34.018Z,8.65
2023-01-13T10:09:35.620Z,8.9
2023-01-13T10:39:27.499Z,8.95
2023-01-13T11:39:34.957Z,9.15
2023-01-13T12:09:32.443Z,9.43
2023-01-13T12:39:26.138Z,9.69
2023-01-13T13:09:28.376Z,9.6
2023-01-13T13:39:36.379Z,9.44
2023-01-13T14:09:27.321Z,9.37
2023-01-13T14:39:34.852Z,9.21
2023-01-13T15:09:31.906Z,9.1
2023-01-13T15:39:30.269Z,9.04
2023-01-13T16:09:47.909Z,8.91
2023-01-13T16:39:33.939Z,8.69
2023-01-13T17:09:25.480Z,8.53
2023-01-13T17:39:22.975Z,8.32
2023-01-13T18:09:26.862Z,8.13
2023-01-13T18:39:24.379Z,8.15
2023-01-13T19:09:26.208Z,8.16
2023-01-13T19:39:36.117Z,8.24
2023-01-13T20:39:29.774Z,7.97
2023-01-13T21:09:28.991Z,7.81
2023-01-13T21:39:24.839Z,7.73
2023-01-13T22:09:30.564Z,7.63
2023-01-13T22:39:24.290Z,7.55
